Time;durP1;ratioP1;P1;durP2;ratioP2;P2;SDS_P1;SDS_P2;PMS_P1;PMS_P2;Temp;Humidity;BMP_temperature;BMP_pressure;BME280_temperature;BME280_humidity;BME280_pressure;Samples;Min_cycle;Max_cycle;Signal;HPM_P1;HPM_P2
2021/07/05 00:00:22;;;;;;;7.10;5.32;;;;;;;17.04;64.54;99827.91;5092202;28;20043;-80
2021/07/05 00:02:48;;;;;;;8.55;4.68;;;;;;;17.01;64.59;99822.75;5093388;28;20067;-81
2021/07/05 00:05:14;;;;;;;6.95;4.55;;;;;;;16.99;64.52;99829.81;5075874;28;20055;-81
2021/07/05 00:07:47;;;;;;;7.15;4.70;;;;;;;16.85;64.74;99815.38;5093298;28;20138;-81
2021/07/05 00:10:15;;;;;;;7.07;4.40;;;;;;;16.92;64.77;99830.91;5093646;28;20046;-81
2021/07/05 00:12:45;;;;;;;6.43;4.50;;;;;;;16.88;64.79;99834.56;5096547;28;20134;-81
2021/07/05 00:15:13;;;;;;;7.20;4.40;;;;;;;16.84;64.77;99828.53;5094595;28;20117;-80
2021/07/05 00:17:40;;;;;;;9.98;4.70;;;;;;;16.80;64.76;99822.53;5078853;28;20041;-81
2021/07/05 00:20:07;;;;;;;8.50;4.78;;;;;;;16.77;64.74;99820.03;5085257;28;20036;-79
2021/07/05 00:22:33;;;;;;;5.50;4.57;;;;;;;16.68;64.84;99813.31;5077744;28;20040;-79
2021/07/05 00:24:59;;;;;;;6.05;4.32;;;;;;;16.68;64.82;99812.44;5086840;28;20066;-78
2021/07/05 00:27:25;;;;;;;7.13;4.65;;;;;;;16.63;65.00;99809.97;5115104;28;20099;-79
2021/07/05 00:29:51;;;;;;;6.80;4.22;;;;;;;16.67;64.83;99822.09;5115258;28;20024;-80
2021/07/05 00:32:16;;;;;;;6.55;4.65;;;;;;;16.59;64.88;99812.75;5115658;28;20040;-79
2021/07/05 00:34:42;;;;;;;6.35;4.18;;;;;;;16.57;65.16;99823.31;5116282;28;20031;-79
2021/07/05 00:37:09;;;;;;;9.48;4.80;;;;;;;16.55;65.02;99823.38;5116178;28;20012;-80
2021/07/05 00:39:35;;;;;;;6.78;4.53;;;;;;;16.54;65.29;99820.81;5115929;28;20044;-77
2021/07/05 00:42:01;;;;;;;8.23;4.68;;;;;;;16.43;65.31;99800.16;5116761;28;20048;-79
2021/07/05 00:44:27;;;;;;;7.70;4.40;;;;;;;16.51;65.44;99816.50;5116011;28;20060;-81
2021/07/05 00:46:53;;;;;;;6.57;4.80;;;;;;;16.38;65.38;99804.69;5116660;28;20048;-80
2021/07/05 00:49:19;;;;;;;5.50;4.32;;;;;;;16.50;65.31;99827.91;5115735;28;20040;-79
2021/07/05 00:51:45;;;;;;;9.07;4.80;;;;;;;16.49;65.45;99826.19;5116578;28;20024;-80
2021/07/05 00:54:11;;;;;;;7.07;4.28;;;;;;;16.46;65.57;99831.53;5116491;28;20024;-78
2021/07/05 00:56:37;;;;;;;9.18;4.63;;;;;;;16.41;65.25;99821.19;5098485;28;20085;-79
2021/07/05 00:59:05;;;;;;;8.55;4.70;;;;;;;16.44;65.31;99830.72;5115560;28;20069;-78
2021/07/05 01:01:31;;;;;;;7.57;4.55;;;;;;;16.37;65.25;99823.97;5115285;28;20012;-80
2021/07/05 01:03:57;;;;;;;6.22;4.28;;;;;;;16.39;65.57;99835.28;5113398;28;20050;-80
2021/07/05 01:06:23;;;;;;;7.50;5.05;;;;;;;16.41;65.46;99839.56;5109804;28;20115;-79
2021/07/05 01:08:49;;;;;;;8.90;4.18;;;;;;;16.29;65.52;99826.84;5115848;28;20032;-80
2021/07/05 01:11:17;;;;;;;7.10;4.72;;;;;;;16.45;65.47;99842.94;5114558;28;20036;-79
2021/07/05 01:13:42;;;;;;;8.32;4.30;;;;;;;16.43;65.45;99836.91;5095942;28;20036;-79
2021/07/05 01:16:10;;;;;;;8.77;4.60;;;;;;;16.48;65.47;99837.59;5111484;28;20020;-77
2021/07/05 01:18:35;;;;;;;9.05;4.10;;;;;;;16.51;65.46;99840.13;5095016;28;20045;-80
2021/07/05 01:21:02;;;;;;;8.13;4.70;;;;;;;16.53;65.17;99833.06;5094914;28;20036;-80
2021/07/05 01:23:28;;;;;;;6.03;4.32;;;;;;;16.62;65.39;99831.91;5095103;28;20024;-79
2021/07/05 01:25:54;;;;;;;10.00;4.43;;;;;;;16.62;65.23;99836.31;5117477;28;20040;-79
2021/07/05 01:28:22;;;;;;;7.47;4.20;;;;;;;16.69;64.95;99835.16;5111808;28;20041;-83
2021/07/05 01:30:48;;;;;;;8.13;4.47;;;;;;;16.73;64.95;99830.69;5118859;28;20039;-81
2021/07/05 01:33:15;;;;;;;6.47;4.03;;;;;;;16.69;64.58;99820.28;5119378;28;20062;-80
2021/07/05 01:35:44;;;;;;;6.13;4.32;;;;;;;16.79;64.48;99831.34;5119600;28;20044;-80
2021/07/05 01:38:19;;;;;;;8.40;4.50;;;;;;;16.89;64.47;99844.16;5099081;28;20048;-77
2021/07/05 01:40:52;;;;;;;7.45;4.15;;;;;;;16.91;64.36;99839.69;5066174;28;20044;-79
2021/07/05 01:43:18;;;;;;;8.18;4.05;;;;;;;16.80;63.94;99827.81;5097384;28;20039;-78
2021/07/05 01:45:44;;;;;;;7.10;4.47;;;;;;;16.83;63.76;99832.97;5097717;28;20050;-77
2021/07/05 01:48:09;;;;;;;5.85;3.50;;;;;;;16.91;63.70;99853.72;5097719;28;20047;-80
2021/07/05 01:50:36;;;;;;;7.25;4.15;;;;;;;16.77;63.37;99837.56;5097983;28;20040;-79
2021/07/05 01:53:02;;;;;;;4.20;3.53;;;;;;;16.67;63.57;99816.84;5064533;28;20039;-77
2021/07/05 01:55:32;;;;;;;7.32;3.75;;;;;;;16.82;63.46;99849.63;5100436;28;20100;-78
2021/07/05 01:58:00;;;;;;;6.18;4.00;;;;;;;16.76;62.99;99847.19;5101454;28;20420;-78
2021/07/05 02:00:27;;;;;;;5.72;3.70;;;;;;;16.85;63.06;99853.91;5103871;28;20036;-79
2021/07/05 02:02:54;;;;;;;9.45;4.05;;;;;;;16.85;62.92;99854.78;5109802;28;20045;-82
2021/07/05 02:05:21;;;;;;;4.70;3.67;;;;;;;16.90;62.49;99859.00;5099235;28;20040;-79
2021/07/05 02:07:48;;;;;;;5.50;3.53;;;;;;;16.89;62.63;99857.28;5096636;28;20092;-78
2021/07/05 02:10:21;;;;;;;6.07;3.90;;;;;;;16.84;62.36;99841.69;5062398;28;20046;-80
2021/07/05 02:12:48;;;;;;;6.05;4.00;;;;;;;16.92;62.39;99855.44;5109220;28;20016;-78
2021/07/05 02:15:15;;;;;;;6.57;3.63;;;;;;;16.93;62.24;99857.16;5117409;28;20038;-79
2021/07/05 02:17:43;;;;;;;5.20;3.70;;;;;;;16.99;62.18;99859.56;5093907;28;20050;-78
2021/07/05 02:20:21;;;;;;;8.20;3.80;;;;;;;17.08;61.92;99866.31;5076513;28;20033;-79
2021/07/05 02:22:50;;;;;;;5.53;3.50;;;;;;;17.08;61.71;99866.31;5075742;28;20073;-78
2021/07/05 02:25:19;;;;;;;7.10;4.18;;;;;;;17.14;61.55;99866.06;5089070;28;20044;-78
2021/07/05 02:27:46;;;;;;;5.55;4.20;;;;;;;17.14;61.62;99868.69;5097693;28;20051;-78
2021/07/05 02:30:16;;;;;;;6.13;3.83;;;;;;;17.09;61.48;99856.63;5098572;28;20043;-78
2021/07/05 02:32:43;;;;;;;5.80;3.97;;;;;;;17.23;61.41;99878.03;5096840;28;20044;-79
2021/07/05 02:35:13;;;;;;;7.97;4.05;;;;;;;17.22;61.29;99868.44;5078709;28;20035;-82
2021/07/05 02:37:40;;;;;;;7.82;3.83;;;;;;;17.30;61.12;99876.06;5095899;28;20112;-81
2021/07/05 02:40:09;;;;;;;5.63;4.00;;;;;;;17.35;61.01;99881.16;5097495;28;20097;-80
2021/07/05 02:42:37;;;;;;;6.45;3.95;;;;;;;17.36;60.53;99880.25;5097885;28;20062;-81
2021/07/05 02:45:05;;;;;;;7.80;4.13;;;;;;;17.33;61.01;99861.94;5097892;28;20503;-81
2021/07/05 02:47:31;;;;;;;7.68;4.03;;;;;;;17.44;60.87;99879.06;5098654;28;20055;-81
2021/07/05 02:49:57;;;;;;;6.57;4.50;;;;;;;17.44;60.65;99876.44;5096522;28;20040;-80
2021/07/05 02:52:23;;;;;;;4.90;3.95;;;;;;;17.54;60.37;99878.72;5096655;28;20089;-80
2021/07/05 02:54:49;;;;;;;6.78;3.75;;;;;;;17.64;60.39;99893.25;5095675;28;20040;-79
2021/07/05 02:57:30;;;;;;;7.03;3.80;;;;;;;17.68;60.14;99886.09;5096265;28;20039;-78
2021/07/05 03:00:01;;;;;;;6.25;4.20;;;;;;;17.62;60.21;99871.41;5098036;28;20040;-80
2021/07/05 03:02:30;;;;;;;7.88;4.35;;;;;;;17.79;59.69;99891.81;5081916;28;20044;-80
2021/07/05 03:05:00;;;;;;;7.10;4.18;;;;;;;17.85;60.04;99896.00;5114187;28;20037;-79
2021/07/05 03:07:27;;;;;;;5.07;3.60;;;;;;;17.84;59.80;99876.72;5096632;28;20060;-79
2021/07/05 03:09:53;;;;;;;5.97;3.83;;;;;;;17.99;59.76;99891.09;5109542;28;20043;-79
2021/07/05 03:12:20;;;;;;;9.13;4.47;;;;;;;18.04;59.87;99898.84;5067393;28;20089;-80
2021/07/05 03:14:46;;;;;;;10.18;4.38;;;;;;;18.12;59.17;99893.28;5101239;28;20047;-79
2021/07/05 03:17:13;;;;;;;6.88;3.88;;;;;;;18.20;59.09;99892.06;5071713;28;20040;-80
2021/07/05 03:19:40;;;;;;;8.73;3.90;;;;;;;18.31;59.02;99894.25;5080773;28;20072;-82
2021/07/05 03:22:07;;;;;;;6.80;3.90;;;;;;;18.39;58.47;99895.75;5074672;28;20055;-80
2021/07/05 03:24:33;;;;;;;5.15;3.72;;;;;;;18.45;58.62;99901.63;5080916;28;20076;-79
2021/07/05 03:26:59;;;;;;;5.68;3.95;;;;;;;18.55;58.39;99893.31;5095383;28;20100;-77
2021/07/05 03:29:25;;;;;;;10.43;4.32;;;;;;;18.54;58.18;99874.03;5106176;28;20423;-78
2021/07/05 03:31:51;;;;;;;5.15;3.20;;;;;;;18.73;58.08;99886.44;5108048;28;20043;-81
2021/07/05 03:34:17;;;;;;;6.80;3.88;;;;;;;18.85;58.16;99885.09;5094889;28;20044;-78
2021/07/05 03:36:42;;;;;;;7.78;3.88;;;;;;;18.96;57.96;99894.28;5094127;28;20036;-77
2021/07/05 03:39:08;;;;;;;8.15;3.50;;;;;;;19.02;57.79;99874.72;5077704;28;20437;-78
2021/07/05 03:41:34;;;;;;;5.90;3.70;;;;;;;19.27;57.68;99890.34;5094334;28;20039;-85
2021/07/05 03:44:00;;;;;;;6.13;3.63;;;;;;;19.36;57.60;99891.72;5094290;28;20415;-78
2021/07/05 03:46:26;;;;;;;5.75;3.50;;;;;;;19.44;57.27;99903.69;5058211;28;20043;-78
2021/07/05 03:48:52;;;;;;;6.40;3.67;;;;;;;19.40;56.52;99876.59;5093030;28;20036;-78
2021/07/05 03:51:18;;;;;;;6.30;3.30;;;;;;;19.62;56.61;99895.00;5091853;28;20503;-82
2021/07/05 03:53:44;;;;;;;4.70;3.22;;;;;;;19.76;56.46;99902.25;5093615;28;20043;-78
2021/07/05 03:56:10;;;;;;;6.68;3.30;;;;;;;19.91;55.88;99899.88;5094265;28;20047;-79
2021/07/05 03:58:36;;;;;;;4.60;3.55;;;;;;;19.86;55.09;99882.44;5092389;28;20068;-77
2021/07/05 04:01:01;;;;;;;4.97;3.40;;;;;;;20.09;54.74;99904.31;5093497;28;20036;-80
2021/07/05 04:03:28;;;;;;;5.75;3.38;;;;;;;20.13;54.66;99881.25;5093738;28;20048;-79
2021/07/05 04:05:54;;;;;;;5.57;2.97;;;;;;;20.39;54.01;99913.50;5059135;28;20046;-80
2021/07/05 04:08:22;;;;;;;4.13;3.00;;;;;;;20.50;53.64;99907.69;5093300;28;20304;-78
2021/07/05 04:10:49;;;;;;;8.10;3.15;;;;;;;20.55;53.44;99885.38;5058797;28;20093;-80
2021/07/05 04:13:15;;;;;;;6.03;3.45;;;;;;;20.70;53.25;99894.34;5092783;28;20040;-79
2021/07/05 04:15:41;;;;;;;5.25;3.00;;;;;;;20.79;52.61;99893.06;5106353;28;20528;-80
2021/07/05 04:18:07;;;;;;;10.85;3.45;;;;;;;20.97;52.30;99912.44;5057212;28;20068;-78
2021/07/05 04:20:34;;;;;;;5.85;3.10;;;;;;;21.11;52.43;99908.22;5057425;28;20040;-78
2021/07/05 04:23:00;;;;;;;4.20;3.15;;;;;;;21.26;51.94;99901.31;5073410;28;20115;-77
2021/07/05 04:25:26;;;;;;;5.07;2.90;;;;;;;21.35;51.51;99904.31;5086602;28;20200;-79
2021/07/05 04:27:54;;;;;;;4.20;3.10;;;;;;;21.51;51.20;99900.91;5092241;28;20044;-77
2021/07/05 04:30:20;;;;;;;5.15;2.53;;;;;;;21.67;50.71;99907.09;5092027;28;20067;-77
2021/07/05 04:32:47;;;;;;;5.00;2.58;;;;;;;21.73;50.34;99882.09;5092038;28;20130;-78
2021/07/05 04:35:18;;;;;;;3.75;2.72;;;;;;;21.94;49.62;99900.38;5093372;28;20040;-80
2021/07/05 04:37:45;;;;;;;4.72;2.65;;;;;;;21.93;49.24;99870.41;5091416;28;20036;-79
2021/07/05 04:40:14;;;;;;;4.00;2.45;;;;;;;22.33;49.16;99893.81;5091775;28;20036;-77
2021/07/05 04:42:41;;;;;;;6.28;2.60;;;;;;;22.30;48.98;99886.03;5091500;28;20044;-79
2021/07/05 04:45:08;;;;;;;4.95;3.17;;;;;;;22.51;48.69;99893.75;5094375;28;20518;-79
2021/07/05 04:47:35;;;;;;;7.47;5.25;;;;;;;22.70;48.15;99894.41;5092446;28;20519;-80
2021/07/05 04:50:01;;;;;;;3.88;2.70;;;;;;;22.75;48.13;99877.34;5093370;28;20124;-80
2021/07/05 04:52:27;;;;;;;5.45;2.80;;;;;;;22.96;47.96;99891.16;5093127;28;20111;-79
2021/07/05 04:54:53;;;;;;;3.50;2.50;;;;;;;22.90;47.74;99870.28;5092690;28;20035;-80
2021/07/05 04:57:20;;;;;;;4.72;2.70;;;;;;;23.00;47.23;99880.25;5074709;28;20410;-78
2021/07/05 04:59:46;;;;;;;6.32;2.80;;;;;;;23.09;46.88;99884.16;5093782;28;20031;-78
2021/07/05 05:02:12;;;;;;;4.78;2.60;;;;;;;23.19;46.87;99895.06;5063248;28;20043;-77
2021/07/05 05:04:38;;;;;;;8.23;2.75;;;;;;;23.22;46.19;99891.44;5095756;28;20131;-79
2021/07/05 05:07:04;;;;;;;3.63;3.00;;;;;;;23.17;45.68;99878.41;5095511;28;20078;-79
2021/07/05 05:09:29;;;;;;;7.70;2.45;;;;;;;23.38;45.29;99881.56;5094995;28;20131;-79
2021/07/05 05:11:55;;;;;;;8.35;2.72;;;;;;;23.50;45.21;99884.44;5077775;28;20497;-78
2021/07/05 05:14:21;;;;;;;4.32;2.50;;;;;;;23.61;45.30;99887.28;5095236;28;20066;-77
2021/07/05 05:16:48;;;;;;;4.00;2.10;;;;;;;23.84;44.61;99882.31;5089479;28;20169;-80
2021/07/05 05:19:15;;;;;;;22.30;3.25;;;;;;;23.95;44.58;99877.16;5077270;28;20041;-78
2021/07/05 05:21:41;;;;;;;4.82;3.15;;;;;;;24.09;44.21;99867.50;5090163;28;20575;-78
2021/07/05 05:24:07;;;;;;;5.25;2.30;;;;;;;24.28;43.89;99885.75;5078576;28;20045;-80
2021/07/05 05:26:33;;;;;;;6.30;2.45;;;;;;;24.30;43.41;99881.19;5096642;28;20467;-82
2021/07/05 05:29:00;;;;;;;4.60;2.53;;;;;;;24.38;43.21;99873.59;5094320;28;20040;-82
2021/07/05 05:31:26;;;;;;;3.20;2.25;;;;;;;24.29;42.33;99885.69;5096596;28;20067;-82
2021/07/05 05:33:53;;;;;;;6.22;2.50;;;;;;;24.25;42.43;99881.50;5097573;28;20122;-77
2021/07/05 05:36:19;;;;;;;5.30;2.42;;;;;;;24.14;42.04;99884.84;5098940;28;20039;-78
2021/07/05 05:38:48;;;;;;;4.18;2.22;;;;;;;24.16;42.36;99876.81;5095589;28;20059;-80
2021/07/05 05:41:15;;;;;;;3.70;2.38;;;;;;;24.34;42.25;99875.59;5095779;28;20085;-81
2021/07/05 05:43:41;;;;;;;2.85;2.20;;;;;;;24.56;42.19;99873.31;5096172;28;20047;-79
2021/07/05 05:46:14;;;;;;;4.82;2.38;;;;;;;24.71;42.18;99879.47;5094717;28;20040;-79
2021/07/05 05:48:42;;;;;;;5.50;2.60;;;;;;;24.75;41.46;99873.81;5099394;28;20496;-81
2021/07/05 05:51:09;;;;;;;4.88;2.22;;;;;;;24.89;41.34;99861.41;5094615;28;20036;-81
2021/07/05 05:53:35;;;;;;;5.85;2.42;;;;;;;25.53;40.64;99885.41;5095382;28;20071;-81
2021/07/05 05:56:01;;;;;;;4.25;2.20;;;;;;;26.50;39.35;99884.72;5095857;28;20051;-80
2021/07/05 05:58:28;;;;;;;3.78;2.50;;;;;;;28.53;37.87;99871.63;5095649;28;20036;-78
2021/07/05 06:00:54;;;;;;;3.13;2.60;;;;;;;29.93;34.24;99845.47;5077460;28;20050;-79
2021/07/05 06:03:19;;;;;;;5.10;2.28;;;;;;;31.87;32.37;99857.09;5095149;28;20039;-79
2021/07/05 06:05:45;;;;;;;5.65;2.38;;;;;;;33.82;30.43;99853.53;5093430;28;20044;-80
2021/07/05 06:08:11;;;;;;;7.13;2.30;;;;;;;35.26;28.07;99848.72;5094739;28;20044;-79
2021/07/05 06:10:37;;;;;;;3.10;2.30;;;;;;;36.56;27.03;99843.81;5095153;28;20046;-80
2021/07/05 06:13:03;;;;;;;6.68;2.40;;;;;;;37.59;25.99;99832.41;5094160;28;20036;-80
2021/07/05 06:15:29;;;;;;;5.70;2.30;;;;;;;37.80;24.47;99838.91;5094820;28;20097;-80
2021/07/05 06:17:54;;;;;;;2.67;2.10;;;;;;;38.67;23.06;99856.09;5044503;28;20523;-78
2021/07/05 06:20:21;;;;;;;4.72;2.25;;;;;;;39.01;21.89;99857.19;5057830;28;20086;-80
2021/07/05 06:22:51;;;;;;;5.00;2.28;;;;;;;39.94;21.21;99846.16;5075712;28;20047;-81
2021/07/05 06:25:17;;;;;;;3.15;2.53;;;;;;;40.63;20.13;99847.72;5090820;28;20481;-78
2021/07/05 06:27:43;;;;;;;3.90;2.58;;;;;;;40.72;19.42;99842.09;5110697;28;20066;-80
2021/07/05 06:30:10;;;;;;;4.63;2.60;;;;;;;41.31;19.58;99848.50;5094519;28;20419;-80
2021/07/05 06:32:36;;;;;;;3.70;2.22;;;;;;;42.46;18.14;99859.69;5095988;28;20504;-80
2021/07/05 06:35:02;;;;;;;4.28;2.40;;;;;;;43.18;17.29;99861.13;5096224;28;20040;-79
2021/07/05 06:37:30;;;;;;;3.97;2.17;;;;;;;43.56;17.04;99861.97;5095509;28;20039;-81
2021/07/05 06:39:55;;;;;;;3.03;2.38;;;;;;;43.48;16.50;99854.88;5097236;28;20035;-78
2021/07/05 06:42:21;;;;;;;3.40;2.50;;;;;;;44.33;16.41;99855.00;5079022;28;20062;-80
2021/07/05 06:44:47;;;;;;;5.10;2.58;;;;;;;45.22;15.78;99864.22;5095064;28;20032;-78
2021/07/05 06:47:14;;;;;;;10.18;2.78;;;;;;;45.53;14.98;99873.09;5094078;28;20039;-83
2021/07/05 06:49:39;;;;;;;6.10;2.78;;;;;;;45.01;14.77;99855.53;5093837;28;20044;-80
2021/07/05 06:52:06;;;;;;;4.60;2.80;;;;;;;45.92;14.50;99859.56;5077204;28;20086;-78
2021/07/05 06:54:32;;;;;;;5.35;2.60;;;;;;;46.20;14.42;99868.88;5097756;28;20036;-78
2021/07/05 06:56:57;;;;;;;3.65;2.70;;;;;;;46.95;13.59;99862.41;5096925;28;20031;-77
2021/07/05 06:59:23;;;;;;;4.50;2.83;;;;;;;46.96;13.19;99862.13;5080142;28;20027;-80
2021/07/05 07:01:49;;;;;;;3.17;2.60;;;;;;;47.41;13.18;99871.28;5097366;28;20462;-81
2021/07/05 07:04:15;;;;;;;4.00;3.00;;;;;;;47.30;13.07;99853.81;5093130;28;20048;-78
2021/07/05 07:06:41;;;;;;;7.00;3.13;;;;;;;47.20;12.80;99839.91;5078158;28;20036;-77
2021/07/05 07:09:07;;;;;;;3.63;2.75;;;;;;;47.59;12.52;99852.75;5097080;28;20050;-78
2021/07/05 07:11:33;;;;;;;5.75;2.80;;;;;;;47.35;12.85;99842.00;5099266;28;20047;-77
2021/07/05 07:13:59;;;;;;;5.28;3.35;;;;;;;47.81;12.89;99860.97;5094268;28;20044;-78
2021/07/05 07:16:28;;;;;;;3.08;2.72;;;;;;;47.44;13.21;99857.00;5089045;28;20118;-80
2021/07/05 07:21:38;;;;;;;6.25;3.30;;;;;;;47.16;12.64;99850.56;5055878;28;20520;-81
2021/07/05 07:24:04;;;;;;;6.80;3.63;;;;;;;44.95;13.86;99840.03;5057951;28;20040;-80
2021/07/05 07:26:30;;;;;;;5.95;3.33;;;;;;;46.12;13.09;99848.16;5092909;28;20126;-80
2021/07/05 07:28:56;;;;;;;4.57;3.30;;;;;;;45.65;13.71;99837.38;5094666;28;20099;-80
2021/07/05 07:31:23;;;;;;;5.72;3.28;;;;;;;44.79;13.81;99849.78;5100195;28;20031;-81
2021/07/05 07:33:49;;;;;;;3.90;3.00;;;;;;;45.15;14.33;99847.03;5089483;28;20560;-78
2021/07/05 07:36:15;;;;;;;4.55;3.25;;;;;;;44.38;14.53;99847.72;5107445;28;20052;-78
2021/07/05 07:38:47;;;;;;;4.28;2.83;;;;;;;42.75;15.44;99863.63;5103360;28;20031;-80
2021/07/05 07:41:16;;;;;;;4.97;3.03;;;;;;;42.95;14.58;99869.97;5076746;28;20142;-78
2021/07/05 07:43:42;;;;;;;4.88;3.25;;;;;;;43.27;15.08;99851.53;5094092;28;20047;-81
2021/07/05 07:46:08;;;;;;;8.35;3.30;;;;;;;42.35;15.58;99849.44;5092592;28;20407;-80
2021/07/05 07:48:34;;;;;;;6.07;3.42;;;;;;;39.98;16.58;99856.41;5093688;28;20140;-84
2021/07/05 07:51:00;;;;;;;4.50;3.17;;;;;;;39.93;17.39;99842.63;5092267;28;20040;-79
2021/07/05 07:53:26;;;;;;;5.00;3.30;;;;;;;39.62;17.68;99843.94;5076597;28;20047;-80
2021/07/05 07:55:52;;;;;;;5.15;4.07;;;;;;;39.70;17.59;99842.91;5093212;28;20392;-77
2021/07/05 07:58:17;;;;;;;6.45;3.83;;;;;;;39.52;17.97;99849.78;5095676;28;20036;-79
2021/07/05 08:00:43;;;;;;;4.80;3.28;;;;;;;41.07;17.30;99839.91;5092995;28;20411;-78
2021/07/05 08:03:11;;;;;;;4.15;3.63;;;;;;;39.44;17.37;99844.47;5059431;28;20043;-79
2021/07/05 08:05:37;;;;;;;6.20;3.40;;;;;;;39.79;17.49;99836.28;5059312;28;20103;-83
2021/07/05 08:08:03;;;;;;;3.38;3.08;;;;;;;41.14;17.29;99844.56;5098055;28;20055;-77
2021/07/05 08:10:31;;;;;;;3.05;2.75;;;;;;;43.04;16.21;99844.00;5079651;28;20039;-81
2021/07/05 08:12:57;;;;;;;3.60;3.05;;;;;;;44.47;14.91;99833.72;5078830;28;20044;-81
2021/07/05 08:15:24;;;;;;;4.22;3.17;;;;;;;45.72;14.46;99849.88;5078888;28;20131;-78
2021/07/05 08:17:50;;;;;;;5.47;3.30;;;;;;;46.23;13.28;99843.66;5059893;28;20051;-79
2021/07/05 08:20:22;;;;;;;4.97;3.42;;;;;;;45.97;14.41;99847.88;5073894;28;20420;-78
2021/07/05 08:22:51;;;;;;;5.43;3.50;;;;;;;45.54;13.58;99833.56;5073346;28;20040;-78
2021/07/05 08:25:18;;;;;;;8.13;3.53;;;;;;;42.84;15.19;99858.72;5086014;28;20044;-79
2021/07/05 08:27:44;;;;;;;7.97;3.33;;;;;;;41.03;15.73;99851.47;5092710;28;20043;-75
2021/07/05 08:30:10;;;;;;;3.55;3.25;;;;;;;39.37;17.47;99838.19;5092879;28;20036;-74
2021/07/05 08:32:36;;;;;;;4.07;3.60;;;;;;;39.56;18.28;99853.75;5094101;28;20040;-78
2021/07/05 08:35:05;;;;;;;5.97;4.00;;;;;;;40.05;17.81;99851.84;5093032;28;20044;-79
2021/07/05 08:37:31;;;;;;;4.38;3.40;;;;;;;40.13;17.82;99845.34;5095198;28;20036;-78
2021/07/05 08:39:57;;;;;;;3.92;3.50;;;;;;;41.22;17.22;99808.84;5072909;28;20074;-78
2021/07/05 08:42:24;;;;;;;10.35;3.58;;;;;;;43.74;15.53;99833.72;5096362;28;20415;-79
2021/07/05 08:44:51;;;;;;;5.50;3.10;;;;;;;45.69;14.58;99830.31;5094329;28;20043;-76
2021/07/05 08:47:18;;;;;;;3.22;2.92;;;;;;;46.84;13.39;99811.91;5096179;28;20038;-77
2021/07/05 08:49:48;;;;;;;5.13;3.45;;;;;;;46.87;13.04;99839.72;5096475;28;20040;-76
2021/07/05 08:52:14;;;;;;;3.67;3.30;;;;;;;46.77;12.88;99832.13;5074688;28;20036;-77
2021/07/05 08:54:41;;;;;;;6.13;3.33;;;;;;;46.79;12.56;99825.53;5074758;28;20492;-76
2021/07/05 08:57:26;;;;;;;4.93;3.40;;;;;;;44.63;13.78;99826.66;5075142;28;20040;-78
2021/07/05 08:59:53;;;;;;;5.32;3.53;;;;;;;41.90;15.46;99823.84;5074009;28;20056;-76
2021/07/05 09:02:21;;;;;;;9.98;4.13;;;;;;;41.78;15.78;99814.72;5075501;28;20536;-81
2021/07/05 09:04:49;;;;;;;4.47;3.38;;;;;;;42.74;15.16;99823.66;5074496;28;20118;-79
2021/07/05 09:07:15;;;;;;;5.13;3.58;;;;;;;43.76;14.85;99818.75;5075233;28;20040;-78
2021/07/05 09:10:02;;;;;;;6.97;3.90;;;;;;;45.11;14.08;99819.25;5087017;28;20040;-77
2021/07/05 09:12:28;;;;;;;4.90;3.45;;;;;;;45.30;13.30;99811.69;5096650;28;20564;-76
2021/07/05 09:15:11;;;;;;;3.35;3.03;;;;;;;45.85;13.10;99821.28;5094954;28;20043;-75
2021/07/05 09:17:41;;;;;;;4.43;3.40;;;;;;;46.60;12.58;99821.16;5079826;28;20198;-78
2021/07/05 09:20:18;;;;;;;;;;;;;;;47.12;12.93;99818.31;5075471;28;20122;-77
2021/07/05 09:23:10;;;;;;;3.33;3.03;;;;;;;47.49;12.70;99823.97;5074002;28;19972;-79
2021/07/05 09:25:45;;;;;;;4.35;2.95;;;;;;;47.89;12.44;99819.16;5089544;28;20047;-74
2021/07/05 09:28:11;;;;;;;4.90;3.45;;;;;;;47.47;12.56;99822.59;5094908;28;20074;-75
2021/07/05 09:30:41;;;;;;;6.40;3.03;;;;;;;46.65;11.76;99825.91;5094633;28;20039;-76
2021/07/05 09:33:21;;;;;;;3.13;2.83;;;;;;;45.85;12.20;99817.69;5093812;28;20077;-75
2021/07/05 09:35:49;;;;;;;3.75;3.13;;;;;;;46.12;12.22;99828.91;5094828;28;20051;-76
2021/07/05 09:38:36;;;;;;;5.83;2.87;;;;;;;46.94;11.75;99820.28;5093809;28;20150;-78
2021/07/05 09:41:24;;;;;;;3.58;3.28;;;;;;;44.94;12.92;99830.13;5076767;28;20043;-76
2021/07/05 09:43:55;;;;;;;5.40;3.60;;;;;;;42.85;13.78;99824.84;5094857;28;20048;-76
2021/07/05 09:46:44;;;;;;;5.32;3.38;;;;;;;40.94;15.05;99818.13;5085152;28;20044;-76
2021/07/05 09:49:10;;;;;;;3.38;2.97;;;;;;;39.61;16.42;99826.75;5092241;28;20044;-77
2021/07/05 09:51:36;;;;;;;5.47;3.80;;;;;;;38.84;16.62;99825.94;5092963;28;20050;-74
2021/07/05 09:54:03;;;;;;;4.18;3.47;;;;;;;37.87;17.90;99822.69;5094382;28;20040;-79
2021/07/05 09:56:30;;;;;;;3.85;3.45;;;;;;;36.96;18.79;99824.66;5075748;28;20040;-76
2021/07/05 09:59:20;;;;;;;5.38;3.30;;;;;;;37.61;19.47;99813.25;5058758;28;20032;-79
2021/07/05 10:01:54;;;;;;;4.53;3.03;;;;;;;39.33;17.77;99793.38;5055792;28;20525;-76
2021/07/05 10:04:38;;;;;;;6.78;3.40;;;;;;;40.29;17.36;99810.59;5095006;28;20534;-77
2021/07/05 10:07:05;;;;;;;7.65;3.47;;;;;;;38.62;17.64;99814.25;5094188;28;20063;-75
2021/07/05 10:09:35;;;;;;;5.15;3.00;;;;;;;38.35;18.36;99816.72;5094552;28;20519;-75
2021/07/05 10:12:30;;;;;;;4.82;3.40;;;;;;;38.38;17.63;99814.47;5092199;28;20108;-74
2021/07/05 10:15:10;;;;;;;5.22;3.10;;;;;;;39.36;17.24;99809.31;5089218;28;20560;-77
2021/07/05 10:17:38;;;;;;;3.85;3.10;;;;;;;40.11;16.43;99809.31;5078672;28;20182;-77
2021/07/05 10:20:08;;;;;;;4.38;3.25;;;;;;;40.05;16.76;99810.16;5055929;28;20496;-75
2021/07/05 10:22:34;;;;;;;3.70;3.08;;;;;;;40.80;16.51;99814.59;5073480;28;20046;-75
2021/07/05 10:25:00;;;;;;;4.80;3.08;;;;;;;40.96;15.92;99813.28;5084634;28;20035;-76
2021/07/05 10:27:26;;;;;;;3.70;2.90;;;;;;;40.94;15.54;99815.38;5092704;28;20048;-78
2021/07/05 10:29:52;;;;;;;4.80;3.20;;;;;;;40.95;15.34;99814.34;5092621;28;20050;-73
2021/07/05 10:32:19;;;;;;;4.97;2.80;;;;;;;39.92;15.63;99803.63;5093795;28;20090;-76
2021/07/05 10:34:51;;;;;;;4.13;2.90;;;;;;;38.58;17.07;99824.66;5093854;28;20403;-77
2021/07/05 10:37:32;;;;;;;4.72;2.70;;;;;;;37.17;16.87;99817.66;5075392;28;20050;-79
2021/07/05 10:40:00;;;;;;;5.20;2.60;;;;;;;36.36;18.25;99820.91;5094439;28;20048;-77
2021/07/05 10:42:31;;;;;;;8.38;3.20;;;;;;;35.96;19.22;99824.59;5092088;28;20181;-77
2021/07/05 10:44:57;;;;;;;;;;;;;;;35.29;19.41;99820.47;5092960;28;20047;-78
2021/07/05 10:47:43;;;;;;;6.70;3.00;;;;;;;34.32;20.15;99845.53;5097426;28;19915;-75
2021/07/05 10:50:29;;;;;;;8.23;3.35;;;;;;;32.87;21.63;99835.50;5086642;28;20059;-78
2021/07/05 10:52:55;;;;;;;8.52;3.08;;;;;;;31.77;22.68;99846.41;5103498;28;20082;-75
2021/07/05 10:55:51;;;;;;;4.95;2.70;;;;;;;31.48;23.91;99815.94;5099449;28;20070;-75
2021/07/05 10:58:20;;;;;;;4.45;2.90;;;;;;;31.77;23.23;99827.59;5096156;28;20509;-79
2021/07/05 11:00:52;;;;;;;3.80;2.80;;;;;;;31.52;23.64;99841.53;5093021;28;20044;-78
2021/07/05 11:03:37;;;;;;;3.13;2.80;;;;;;;31.17;23.99;99839.56;5093341;28;20043;-78
2021/07/05 11:06:22;;;;;;;6.68;3.40;;;;;;;30.75;24.90;99843.44;5093377;28;20036;-77
2021/07/05 11:08:51;;;;;;;5.78;3.15;;;;;;;30.56;24.84;99834.44;5059891;28;20137;-77
2021/07/05 11:11:29;;;;;;;6.10;2.83;;;;;;;30.44;26.08;99836.38;5093818;28;20513;-77
2021/07/05 11:14:14;;;;;;;5.13;2.80;;;;;;;30.68;26.05;99819.00;5097844;28;20047;-77
2021/07/05 11:16:59;;;;;;;4.32;3.08;;;;;;;30.69;25.89;99823.38;5088684;28;20048;-76
2021/07/05 11:19:48;;;;;;;4.13;2.80;;;;;;;30.63;26.24;99816.75;5073798;28;20048;-74
2021/07/05 11:22:50;;;;;;;4.32;2.50;;;;;;;30.54;26.35;99797.94;5073640;28;20044;-77
2021/07/05 11:25:18;;;;;;;3.13;2.78;;;;;;;30.34;26.36;99822.94;5092500;28;20522;-76
2021/07/05 11:27:47;;;;;;;8.40;3.60;;;;;;;29.69;27.02;99820.72;5091758;28;20142;-76
2021/07/05 11:30:21;;;;;;;6.60;5.40;;;;;;;29.30;27.25;99821.41;5093019;28;20131;-75
2021/07/05 11:33:12;;;;;;;8.82;3.70;;;;;;;29.10;27.77;99822.31;5093168;28;20048;-74
2021/07/05 11:35:52;;;;;;;6.28;3.38;;;;;;;29.09;27.59;99818.75;5092219;28;20048;-78
2021/07/05 11:38:29;;;;;;;4.97;3.35;;;;;;;28.90;27.48;99821.34;5093032;28;20043;-77
2021/07/05 11:41:04;;;;;;;4.30;2.90;;;;;;;28.78;27.72;99810.72;5094093;28;20052;-78
2021/07/05 11:43:49;;;;;;;4.15;2.60;;;;;;;28.89;27.69;99801.75;5093813;28;20054;-77